»·PEaware :: WAT175 KSNA-KPHX

WAT175 :: KSNA-KPHX

FLIGHT INFORMATION

Flight Status: Arrived
Operator:
Walker Air Transport
More flights by this operator :: More flights under this callsign
Pilot: Michael C. (27126)
Aircraft: BOEING 737-800
(B738)
More flights by this aircraft type
Origin: KSNA John Wayne-Orange Co
United States
Destination: KPHX Phoenix Sky Harbor Intl
United States
More flights between these airports :: More routes between these airports
Route: STAYY3 CNERY BLH HYDRR1
File this flight plan on PilotEdge
Remarks: RMK / SIMBRIEF
Altitude:
(Current/Filed)
33,000ft
Speed:
(Current/Filed)
436kts
Departed: 27-Mar-20 08:23 PM
Arrived: 27-Mar-20 09:12 PM
Distance/Time
Traveled:
294nm/0:49
Distance/Time
To Go:
Arrived

Flight Plot

Page will automatically refresh every two minutes.

Flight plan parsing failed; only flown route is shown


Map Options




Map Legend


Flown Route
Filed Route
Departure Airport
Arrival Airport
Navaid (VOR, NDB)
Fix

Horizontal Profiles

Position Reports

Time Latitude Longitude Heading Altitude Ground
Speed
27-Mar-20 19:28 33.677922 -117.863218 118 67ft 0kts
27-Mar-20 19:29 33.677922 -117.863218 118 67ft 0kts
27-Mar-20 19:30 33.677922 -117.863218 118 67ft 0kts
27-Mar-20 19:31 33.677922 -117.863218 118 67ft 0kts
27-Mar-20 19:32 33.677922 -117.863218 118 67ft 0kts
27-Mar-20 19:33 33.677922 -117.863218 118 67ft 0kts
27-Mar-20 19:34 33.677922 -117.863218 118 67ft 0kts
27-Mar-20 19:35 33.677922 -117.863218 118 66ft 0kts
27-Mar-20 19:36 33.677922 -117.863218 118 66ft 0kts
27-Mar-20 19:37 33.677922 -117.863218 118 66ft 0kts
27-Mar-20 19:38 33.677922 -117.863218 118 66ft 0kts
27-Mar-20 19:39 33.677922 -117.863218 118 66ft 0kts
27-Mar-20 19:40 33.677922 -117.863218 118 66ft 0kts
27-Mar-20 19:41 33.677922 -117.863218 118 66ft 0kts
27-Mar-20 19:42 33.677922 -117.863218 118 66ft 0kts
27-Mar-20 19:43 33.677922 -117.863218 118 66ft 0kts
27-Mar-20 19:44 33.677922 -117.863218 118 66ft 0kts
27-Mar-20 19:45 33.677922 -117.863218 118 66ft 0kts
27-Mar-20 19:46 33.677922 -117.863218 118 66ft 0kts
27-Mar-20 19:47 33.677922 -117.863218 118 66ft 0kts
27-Mar-20 19:48 33.677922 -117.863218 118 66ft 0kts
27-Mar-20 19:49 33.677922 -117.863218 118 66ft 0kts
27-Mar-20 19:50 33.677922 -117.863218 118 66ft 0kts
27-Mar-20 19:51 33.677922 -117.863218 118 66ft 0kts
27-Mar-20 19:52 33.677922 -117.863218 118 66ft 0kts
27-Mar-20 19:53 33.677922 -117.863218 118 66ft 0kts
27-Mar-20 19:54 33.677922 -117.863218 118 66ft 0kts
27-Mar-20 19:55 33.677922 -117.863218 118 66ft 0kts
27-Mar-20 19:56 33.677922 -117.863218 118 66ft 0kts
27-Mar-20 19:57 33.677922 -117.863218 118 66ft 0kts
27-Mar-20 19:58 33.677922 -117.863218 118 66ft 0kts
27-Mar-20 19:59 33.677922 -117.863218 118 66ft 0kts
27-Mar-20 20:00 33.677922 -117.863218 118 66ft 0kts
27-Mar-20 20:01 33.677922 -117.863218 118 66ft 0kts
27-Mar-20 20:02 33.677922 -117.863218 118 66ft 0kts
27-Mar-20 20:03 33.677922 -117.863218 118 66ft 0kts
27-Mar-20 20:04 33.677922 -117.863218 118 66ft 0kts
27-Mar-20 20:05 33.677922 -117.863218 118 66ft 0kts
27-Mar-20 20:06 33.677922 -117.863218 118 66ft 0kts
27-Mar-20 20:07 33.677922 -117.863218 118 66ft 0kts
27-Mar-20 20:08 33.677922 -117.863218 118 66ft 0kts
27-Mar-20 20:09 33.677922 -117.863218 118 66ft 0kts
27-Mar-20 20:10 33.677922 -117.863218 118 67ft 0kts
27-Mar-20 20:12 33.677922 -117.863218 118 67ft 0kts
27-Mar-20 20:13 33.677922 -117.863218 118 67ft 0kts
27-Mar-20 20:14 33.677922 -117.863218 118 67ft 0kts
27-Mar-20 20:15 33.677922 -117.863218 118 67ft 0kts
27-Mar-20 20:16 33.678059 -117.863524 118 66ft 1kts
27-Mar-20 20:17 33.677981 -117.864033 30 67ft 0kts
27-Mar-20 20:18 33.677914 -117.864073 26 66ft 0kts
27-Mar-20 20:19 33.677936 -117.864059 26 66ft 2kts
27-Mar-20 20:20 33.680426 -117.862775 321 66ft 5kts
27-Mar-20 20:21 33.680492 -117.862856 310 66ft 0kts
27-Mar-20 20:22 33.680780 -117.863384 297 66ft 13kts
27-Mar-20 20:23 33.668428 -117.873442 208 106ft 165kts
27-Mar-20 20:24 33.624553 -117.896228 191 2369ft 210kts
27-Mar-20 20:25 33.561568 -117.892675 155 5020ft 265kts
27-Mar-20 20:26 33.500964 -117.837204 124 8314ft 292kts
27-Mar-20 20:27 33.477391 -117.741831 85 10823ft 331kts
27-Mar-20 20:27 33.502647 -117.652554 57 12855ft 352kts
27-Mar-20 20:29 33.559982 -117.531341 62 14809ft 364kts
27-Mar-20 20:30 33.559008 -117.408748 107 17344ft 389kts
27-Mar-20 20:30 33.527717 -117.305966 108 19229ft 402kts
27-Mar-20 20:31 33.505148 -117.172187 92 21311ft 414kts
27-Mar-20 20:33 33.500603 -117.008589 88 23495ft 429kts
27-Mar-20 20:33 33.498081 -116.887801 88 24920ft 440kts
27-Mar-20 20:34 33.496344 -116.739325 87 26421ft 453kts
27-Mar-20 20:35 33.494575 -116.585971 87 27811ft 466kts
27-Mar-20 20:36 33.492586 -116.428276 87 29121ft 477kts
27-Mar-20 20:37 33.490093 -116.270619 88 30257ft 488kts
27-Mar-20 20:38 33.487547 -116.107128 88 31611ft 490kts
27-Mar-20 20:39 33.511297 -115.949383 67 32983ft 479kts
27-Mar-20 20:40 33.555269 -115.798182 66 33083ft 478kts
27-Mar-20 20:41 33.599017 -115.648061 66 33085ft 478kts
27-Mar-20 20:42 33.612563 -115.488078 87 33086ft 488kts
27-Mar-20 20:43 33.610858 -115.325239 89 33080ft 488kts
27-Mar-20 20:44 33.607452 -115.162544 89 33079ft 488kts
27-Mar-20 20:45 33.603349 -114.998076 90 33081ft 496kts
27-Mar-20 20:46 33.598899 -114.834040 90 33083ft 490kts
27-Mar-20 20:47 33.576923 -114.672636 101 33085ft 494kts
27-Mar-20 20:48 33.546904 -114.510344 101 30510ft 485kts
27-Mar-20 20:49 33.517313 -114.356882 101 28550ft 462kts
27-Mar-20 20:50 33.488919 -114.211478 101 26644ft 442kts
27-Mar-20 20:51 33.461229 -114.071347 101 25122ft 425kts
27-Mar-20 20:52 33.432683 -113.930879 101 24684ft 434kts
27-Mar-20 20:53 33.404844 -113.793031 101 23691ft 423kts
27-Mar-20 20:54 33.377441 -113.657250 101 22700ft 414kts
27-Mar-20 20:55 33.350660 -113.525117 101 21721ft 405kts
27-Mar-20 20:56 33.325759 -113.395153 98 20745ft 397kts
27-Mar-20 20:57 33.303766 -113.266833 99 19748ft 390kts
27-Mar-20 20:58 33.284320 -113.140539 96 19124ft 381kts
27-Mar-20 20:59 33.275479 -113.019631 84 18673ft 346kts
27-Mar-20 21:00 33.278649 -112.898937 84 17395ft 358kts
27-Mar-20 21:01 33.284239 -112.780328 79 15888ft 349kts
27-Mar-20 21:02 33.302240 -112.669578 53 14418ft 324kts
27-Mar-20 21:03 33.351998 -112.578465 54 11287ft 331kts
27-Mar-20 21:04 33.395191 -112.492253 55 9763ft 305kts
27-Mar-20 21:05 33.427049 -112.398055 76 7843ft 307kts
27-Mar-20 21:06 33.428948 -112.299186 90 5812ft 272kts
27-Mar-20 21:07 33.428961 -112.215790 90 4293ft 229kts
27-Mar-20 21:08 33.428975 -112.146048 90 3114ft 181kts
27-Mar-20 21:09 33.428940 -112.091753 91 2210ft 158kts
27-Mar-20 21:10 33.428846 -112.038826 91 1314ft 155kts
27-Mar-20 21:11 33.429285 -112.007839 39 1125ft 13kts
27-Mar-20 21:12 33.429484 -112.007641 39 1125ft 6kts
27-Mar-20 21:13 33.431509 -112.006269 0 1129ft 2kts
27-Mar-20 21:14 33.434445 -112.004745 359 1129ft 23kts
27-Mar-20 21:15 33.439067 -112.002931 91 1133ft 14kts
27-Mar-20 21:16 33.438367 -112.001615 193 1133ft 0kts
27-Mar-20 21:17 33.438360 -112.001617 193 1133ft 0kts
27-Mar-20 21:18 33.438360 -112.001617 193 1133ft 0kts
27-Mar-20 21:19 33.438360 -112.001617 193 1133ft 0kts
27-Mar-20 21:20 33.438360 -112.001617 193 1133ft 0kts
27-Mar-20 21:21 33.438360 -112.001617 193 1133ft 0kts
27-Mar-20 21:22 33.438360 -112.001617 193 1133ft 0kts
27-Mar-20 21:23 33.438360 -112.001617 193 1133ft 0kts

Navigation Log

Ident Type
Flight plan parsing failed, navigation log unavailable